Terminal Aerodrome Forecast
Issued by NWS

Current Version | Previous Version | Text Only | Print | Product List | Glossary On
Versions: 1 2 3 4 5 6 7 8 9 10 11 12 13 14 15 16 17 18
227
FTUS44 KCRP 201929 AAA
TAFALI
TAF AMD
KALI 201929Z 2019/2118 18011KT P6SM BKN021
     FM210200 14009KT 4SM BR OVC006
     FM210500 16007KT 2SM BR OVC003
     FM211600 17013G18KT 4SM BR SCT008 BKN015=

USA.gov is the U.S. government's official web portal to all federal, state and local government web resources and services.